sensor_id;sensor_type;location;lat;lon;timestamp;temperature;humidity
2387;DHT22;49473;50.772;8.768;2023-11-21T00:00:27;8.50;99.90
2387;DHT22;49473;50.772;8.768;2023-11-21T00:02:54;8.60;99.90
2387;DHT22;49473;50.772;8.768;2023-11-21T00:05:21;8.60;99.90
2387;DHT22;49473;50.772;8.768;2023-11-21T00:07:50;8.60;99.90
2387;DHT22;49473;50.772;8.768;2023-11-21T00:10:17;8.60;99.90
2387;DHT22;49473;50.772;8.768;2023-11-21T00:12:43;8.50;99.90
2387;DHT22;49473;50.772;8.768;2023-11-21T00:15:13;8.50;99.90
2387;DHT22;49473;50.772;8.768;2023-11-21T00:17:40;8.40;99.90
2387;DHT22;49473;50.772;8.768;2023-11-21T00:20:08;8.40;99.90
2387;DHT22;49473;50.772;8.768;2023-11-21T00:22:38;8.30;99.90
2387;DHT22;49473;50.772;8.768;2023-11-21T00:25:08;8.30;99.90
2387;DHT22;49473;50.772;8.768;2023-11-21T00:27:35;8.30;99.90
2387;DHT22;49473;50.772;8.768;2023-11-21T00:30:01;8.40;99.90
2387;DHT22;49473;50.772;8.768;2023-11-21T00:32:29;8.50;99.90
2387;DHT22;49473;50.772;8.768;2023-11-21T00:34:56;8.40;99.90
2387;DHT22;49473;50.772;8.768;2023-11-21T00:37:23;8.30;99.90
2387;DHT22;49473;50.772;8.768;2023-11-21T00:39:50;8.50;99.90
2387;DHT22;49473;50.772;8.768;2023-11-21T00:42:18;8.50;99.90
2387;DHT22;49473;50.772;8.768;2023-11-21T00:44:46;8.60;99.90
2387;DHT22;49473;50.772;8.768;2023-11-21T00:47:13;8.60;99.90
2387;DHT22;49473;50.772;8.768;2023-11-21T00:49:39;8.70;99.90
2387;DHT22;49473;50.772;8.768;2023-11-21T00:52:06;8.60;99.90
2387;DHT22;49473;50.772;8.768;2023-11-21T00:54:33;8.70;99.90
2387;DHT22;49473;50.772;8.768;2023-11-21T00:57:00;8.60;99.90
2387;DHT22;49473;50.772;8.768;2023-11-21T00:59:28;8.60;99.90
2387;DHT22;49473;50.772;8.768;2023-11-21T01:01:56;8.50;99.90
2387;DHT22;49473;50.772;8.768;2023-11-21T01:04:25;8.50;99.90
2387;DHT22;49473;50.772;8.768;2023-11-21T01:06:52;8.50;99.90
2387;DHT22;49473;50.772;8.768;2023-11-21T01:09:19;8.40;99.90
2387;DHT22;49473;50.772;8.768;2023-11-21T01:11:46;8.20;99.90
2387;DHT22;49473;50.772;8.768;2023-11-21T01:14:13;8.10;99.90
2387;DHT22;49473;50.772;8.768;2023-11-21T01:16:41;7.90;99.90
2387;DHT22;49473;50.772;8.768;2023-11-21T01:19:08;7.90;99.90
2387;DHT22;49473;50.772;8.768;2023-11-21T01:21:34;7.90;99.90
2387;DHT22;49473;50.772;8.768;2023-11-21T01:24:02;7.90;99.90
2387;DHT22;49473;50.772;8.768;2023-11-21T01:26:33;8.00;99.90
2387;DHT22;49473;50.772;8.768;2023-11-21T01:29:00;8.00;99.90
2387;DHT22;49473;50.772;8.768;2023-11-21T01:31:28;8.00;99.90
2387;DHT22;49473;50.772;8.768;2023-11-21T01:33:58;7.90;99.90
2387;DHT22;49473;50.772;8.768;2023-11-21T01:36:33;7.90;99.90
2387;DHT22;49473;50.772;8.768;2023-11-21T01:39:05;7.90;99.90
2387;DHT22;49473;50.772;8.768;2023-11-21T01:41:36;7.90;99.90
2387;DHT22;49473;50.772;8.768;2023-11-21T01:44:05;7.90;99.90
2387;DHT22;49473;50.772;8.768;2023-11-21T01:46:35;7.90;99.90
2387;DHT22;49473;50.772;8.768;2023-11-21T01:49:06;7.90;99.90
2387;DHT22;49473;50.772;8.768;2023-11-21T01:51:36;7.90;99.90
2387;DHT22;49473;50.772;8.768;2023-11-21T01:54:06;8.00;99.90
2387;DHT22;49473;50.772;8.768;2023-11-21T01:56:35;8.00;99.90
2387;DHT22;49473;50.772;8.768;2023-11-21T01:59:03;8.00;99.90
2387;DHT22;49473;50.772;8.768;2023-11-21T02:01:33;7.90;99.90
2387;DHT22;49473;50.772;8.768;2023-11-21T02:04:00;7.90;99.90
2387;DHT22;49473;50.772;8.768;2023-11-21T02:06:28;8.00;99.90
2387;DHT22;49473;50.772;8.768;2023-11-21T02:08:56;8.00;99.90
2387;DHT22;49473;50.772;8.768;2023-11-21T02:11:25;7.90;99.90
2387;DHT22;49473;50.772;8.768;2023-11-21T02:13:52;7.80;99.90
2387;DHT22;49473;50.772;8.768;2023-11-21T02:16:19;7.80;99.90
2387;DHT22;49473;50.772;8.768;2023-11-21T02:18:47;7.90;99.90
2387;DHT22;49473;50.772;8.768;2023-11-21T02:21:14;7.90;99.90
2387;DHT22;49473;50.772;8.768;2023-11-21T02:23:42;7.90;99.90
2387;DHT22;49473;50.772;8.768;2023-11-21T02:26:10;7.90;99.90
2387;DHT22;49473;50.772;8.768;2023-11-21T02:28:36;7.90;99.90
2387;DHT22;49473;50.772;8.768;2023-11-21T02:31:04;7.90;99.90
2387;DHT22;49473;50.772;8.768;2023-11-21T02:33:31;7.90;99.90
2387;DHT22;49473;50.772;8.768;2023-11-21T02:35:59;8.00;99.90
2387;DHT22;49473;50.772;8.768;2023-11-21T02:38:26;7.90;99.90
2387;DHT22;49473;50.772;8.768;2023-11-21T02:40:55;7.90;99.90
2387;DHT22;49473;50.772;8.768;2023-11-21T02:43:22;7.70;99.90
2387;DHT22;49473;50.772;8.768;2023-11-21T02:45:49;7.80;99.90
2387;DHT22;49473;50.772;8.768;2023-11-21T02:48:15;7.90;99.90
2387;DHT22;49473;50.772;8.768;2023-11-21T02:50:42;7.90;99.90
2387;DHT22;49473;50.772;8.768;2023-11-21T02:53:09;7.90;99.90
2387;DHT22;49473;50.772;8.768;2023-11-21T02:55:36;7.90;99.90
2387;DHT22;49473;50.772;8.768;2023-11-21T02:58:04;7.90;99.90
2387;DHT22;49473;50.772;8.768;2023-11-21T03:00:31;8.00;99.90
2387;DHT22;49473;50.772;8.768;2023-11-21T03:02:58;7.90;99.90
2387;DHT22;49473;50.772;8.768;2023-11-21T03:05:26;8.00;99.90
2387;DHT22;49473;50.772;8.768;2023-11-21T03:07:54;8.00;99.90
2387;DHT22;49473;50.772;8.768;2023-11-21T03:10:21;8.00;99.90
2387;DHT22;49473;50.772;8.768;2023-11-21T03:12:48;8.00;99.90
2387;DHT22;49473;50.772;8.768;2023-11-21T03:15:16;8.00;99.90
2387;DHT22;49473;50.772;8.768;2023-11-21T03:17:43;8.00;99.90
2387;DHT22;49473;50.772;8.768;2023-11-21T03:20:11;8.00;99.90
2387;DHT22;49473;50.772;8.768;2023-11-21T03:22:39;7.90;99.90
2387;DHT22;49473;50.772;8.768;2023-11-21T03:25:07;7.90;99.90
2387;DHT22;49473;50.772;8.768;2023-11-21T03:27:36;7.90;99.90
2387;DHT22;49473;50.772;8.768;2023-11-21T03:30:03;7.80;99.90
2387;DHT22;49473;50.772;8.768;2023-11-21T03:32:33;7.90;99.90
2387;DHT22;49473;50.772;8.768;2023-11-21T03:35:01;7.80;99.90
2387;DHT22;49473;50.772;8.768;2023-11-21T03:37:28;7.90;99.90
2387;DHT22;49473;50.772;8.768;2023-11-21T03:39:55;7.90;99.90
2387;DHT22;49473;50.772;8.768;2023-11-21T03:42:22;7.90;99.90
2387;DHT22;49473;50.772;8.768;2023-11-21T03:44:49;7.90;99.90
2387;DHT22;49473;50.772;8.768;2023-11-21T03:47:16;7.90;99.90
2387;DHT22;49473;50.772;8.768;2023-11-21T03:49:44;7.90;99.90
2387;DHT22;49473;50.772;8.768;2023-11-21T03:52:11;7.80;99.90
2387;DHT22;49473;50.772;8.768;2023-11-21T03:54:37;7.80;99.90
2387;DHT22;49473;50.772;8.768;2023-11-21T03:57:04;7.60;99.90
2387;DHT22;49473;50.772;8.768;2023-11-21T03:59:31;7.60;99.90
2387;DHT22;49473;50.772;8.768;2023-11-21T04:01:58;7.60;99.90
2387;DHT22;49473;50.772;8.768;2023-11-21T04:04:25;7.60;99.90
2387;DHT22;49473;50.772;8.768;2023-11-21T04:06:53;7.70;99.90
2387;DHT22;49473;50.772;8.768;2023-11-21T04:09:19;7.80;99.90
2387;DHT22;49473;50.772;8.768;2023-11-21T04:11:49;7.70;99.90
2387;DHT22;49473;50.772;8.768;2023-11-21T04:14:16;7.70;99.90
2387;DHT22;49473;50.772;8.768;2023-11-21T04:16:42;7.80;99.90
2387;DHT22;49473;50.772;8.768;2023-11-21T04:19:09;7.90;99.90
2387;DHT22;49473;50.772;8.768;2023-11-21T04:21:36;7.90;99.90
2387;DHT22;49473;50.772;8.768;2023-11-21T04:24:06;7.90;99.90
2387;DHT22;49473;50.772;8.768;2023-11-21T04:26:33;7.90;99.90
2387;DHT22;49473;50.772;8.768;2023-11-21T04:28:59;7.90;99.90
2387;DHT22;49473;50.772;8.768;2023-11-21T04:31:26;7.90;99.90
2387;DHT22;49473;50.772;8.768;2023-11-21T04:33:53;7.80;99.90
2387;DHT22;49473;50.772;8.768;2023-11-21T04:36:19;7.90;99.90
2387;DHT22;49473;50.772;8.768;2023-11-21T04:38:46;7.80;99.90
2387;DHT22;49473;50.772;8.768;2023-11-21T04:41:14;7.80;99.90
2387;DHT22;49473;50.772;8.768;2023-11-21T04:43:41;7.70;99.90
2387;DHT22;49473;50.772;8.768;2023-11-21T04:46:09;7.60;99.90
2387;DHT22;49473;50.772;8.768;2023-11-21T04:48:35;7.60;99.90
2387;DHT22;49473;50.772;8.768;2023-11-21T04:51:02;7.70;99.90
2387;DHT22;49473;50.772;8.768;2023-11-21T04:53:29;7.60;99.90
2387;DHT22;49473;50.772;8.768;2023-11-21T04:55:56;7.60;99.90
2387;DHT22;49473;50.772;8.768;2023-11-21T04:58:24;7.60;99.90
2387;DHT22;49473;50.772;8.768;2023-11-21T05:00:51;7.60;99.90
2387;DHT22;49473;50.772;8.768;2023-11-21T05:03:18;7.60;99.90
2387;DHT22;49473;50.772;8.768;2023-11-21T05:05:45;7.70;99.90
2387;DHT22;49473;50.772;8.768;2023-11-21T05:08:11;7.70;99.90
2387;DHT22;49473;50.772;8.768;2023-11-21T05:10:38;7.60;99.90
2387;DHT22;49473;50.772;8.768;2023-11-21T05:13:05;7.60;99.90
2387;DHT22;49473;50.772;8.768;2023-11-21T05:15:37;7.60;99.90
2387;DHT22;49473;50.772;8.768;2023-11-21T05:18:04;7.50;99.90
2387;DHT22;49473;50.772;8.768;2023-11-21T05:20:30;7.40;99.90
2387;DHT22;49473;50.772;8.768;2023-11-21T05:22:58;7.40;99.90
2387;DHT22;49473;50.772;8.768;2023-11-21T05:25:25;7.40;99.90
2387;DHT22;49473;50.772;8.768;2023-11-21T05:27:52;7.40;99.90
2387;DHT22;49473;50.772;8.768;2023-11-21T05:30:20;7.50;99.90
2387;DHT22;49473;50.772;8.768;2023-11-21T05:32:48;7.30;99.90
2387;DHT22;49473;50.772;8.768;2023-11-21T05:35:16;7.40;99.90
2387;DHT22;49473;50.772;8.768;2023-11-21T05:37:43;7.40;99.90
2387;DHT22;49473;50.772;8.768;2023-11-21T05:40:11;7.40;99.90
2387;DHT22;49473;50.772;8.768;2023-11-21T05:42:39;7.40;99.90
2387;DHT22;49473;50.772;8.768;2023-11-21T05:45:07;7.40;99.90
2387;DHT22;49473;50.772;8.768;2023-11-21T05:47:37;7.40;99.90
2387;DHT22;49473;50.772;8.768;2023-11-21T05:50:07;7.50;99.90
2387;DHT22;49473;50.772;8.768;2023-11-21T05:52:37;7.50;99.90
2387;DHT22;49473;50.772;8.768;2023-11-21T05:55:04;7.50;99.90
2387;DHT22;49473;50.772;8.768;2023-11-21T05:57:32;7.50;99.90
2387;DHT22;49473;50.772;8.768;2023-11-21T05:59:59;7.50;99.90
2387;DHT22;49473;50.772;8.768;2023-11-21T06:02:28;7.40;99.90
2387;DHT22;49473;50.772;8.768;2023-11-21T06:04:55;7.40;99.90
2387;DHT22;49473;50.772;8.768;2023-11-21T06:07:23;7.40;99.90
2387;DHT22;49473;50.772;8.768;2023-11-21T06:09:50;7.30;99.90
2387;DHT22;49473;50.772;8.768;2023-11-21T06:12:17;7.30;99.90
2387;DHT22;49473;50.772;8.768;2023-11-21T06:14:45;7.20;99.90
2387;DHT22;49473;50.772;8.768;2023-11-21T06:17:13;7.20;99.90
2387;DHT22;49473;50.772;8.768;2023-11-21T06:19:40;7.20;99.90
2387;DHT22;49473;50.772;8.768;2023-11-21T06:22:07;7.20;99.90
2387;DHT22;49473;50.772;8.768;2023-11-21T06:24:36;7.10;99.90
2387;DHT22;49473;50.772;8.768;2023-11-21T06:27:03;7.10;99.90
2387;DHT22;49473;50.772;8.768;2023-11-21T06:29:30;7.10;99.90
2387;DHT22;49473;50.772;8.768;2023-11-21T06:31:58;7.20;99.90
2387;DHT22;49473;50.772;8.768;2023-11-21T06:34:25;7.30;99.90
2387;DHT22;49473;50.772;8.768;2023-11-21T06:36:53;7.30;99.90
2387;DHT22;49473;50.772;8.768;2023-11-21T06:39:20;7.30;99.90
2387;DHT22;49473;50.772;8.768;2023-11-21T06:41:49;7.30;99.90
2387;DHT22;49473;50.772;8.768;2023-11-21T06:44:16;7.10;99.90
2387;DHT22;49473;50.772;8.768;2023-11-21T06:46:42;7.00;99.90
2387;DHT22;49473;50.772;8.768;2023-11-21T06:49:10;7.00;99.90
2387;DHT22;49473;50.772;8.768;2023-11-21T06:51:37;7.00;99.90
2387;DHT22;49473;50.772;8.768;2023-11-21T06:54:05;7.00;99.90
2387;DHT22;49473;50.772;8.768;2023-11-21T06:56:32;6.90;99.90
2387;DHT22;49473;50.772;8.768;2023-11-21T06:59:00;7.10;99.90
2387;DHT22;49473;50.772;8.768;2023-11-21T07:01:27;7.10;99.90
2387;DHT22;49473;50.772;8.768;2023-11-21T07:03:53;7.20;99.90
2387;DHT22;49473;50.772;8.768;2023-11-21T07:06:20;7.20;99.90
2387;DHT22;49473;50.772;8.768;2023-11-21T07:08:47;7.10;99.90
2387;DHT22;49473;50.772;8.768;2023-11-21T07:11:13;7.20;99.90
2387;DHT22;49473;50.772;8.768;2023-11-21T07:13:40;7.30;99.90
2387;DHT22;49473;50.772;8.768;2023-11-21T07:16:08;7.40;99.90
2387;DHT22;49473;50.772;8.768;2023-11-21T07:18:35;7.40;99.90
2387;DHT22;49473;50.772;8.768;2023-11-21T07:21:03;7.40;99.90
2387;DHT22;49473;50.772;8.768;2023-11-21T07:23:30;7.40;99.90
2387;DHT22;49473;50.772;8.768;2023-11-21T07:25:57;7.40;99.90
2387;DHT22;49473;50.772;8.768;2023-11-21T07:28:24;7.50;99.90
2387;DHT22;49473;50.772;8.768;2023-11-21T07:30:51;7.50;99.90
2387;DHT22;49473;50.772;8.768;2023-11-21T07:33:19;7.50;99.90
2387;DHT22;49473;50.772;8.768;2023-11-21T07:35:47;7.30;99.90
2387;DHT22;49473;50.772;8.768;2023-11-21T07:38:13;7.30;99.90
2387;DHT22;49473;50.772;8.768;2023-11-21T07:40:40;7.30;99.90
2387;DHT22;49473;50.772;8.768;2023-11-21T07:43:07;7.40;99.90
2387;DHT22;49473;50.772;8.768;2023-11-21T07:45:34;7.60;99.90
2387;DHT22;49473;50.772;8.768;2023-11-21T07:48:01;7.80;99.90
2387;DHT22;49473;50.772;8.768;2023-11-21T07:50:30;8.00;99.90
2387;DHT22;49473;50.772;8.768;2023-11-21T07:52:58;8.10;99.90
2387;DHT22;49473;50.772;8.768;2023-11-21T07:55:24;8.30;99.90
2387;DHT22;49473;50.772;8.768;2023-11-21T07:57:52;8.50;99.90
2387;DHT22;49473;50.772;8.768;2023-11-21T08:00:19;8.70;99.90
2387;DHT22;49473;50.772;8.768;2023-11-21T08:02:46;8.80;99.90
2387;DHT22;49473;50.772;8.768;2023-11-21T08:05:13;9.00;99.90
2387;DHT22;49473;50.772;8.768;2023-11-21T08:07:42;9.20;99.90
2387;DHT22;49473;50.772;8.768;2023-11-21T08:10:09;9.20;99.90
2387;DHT22;49473;50.772;8.768;2023-11-21T08:12:38;9.30;99.90
2387;DHT22;49473;50.772;8.768;2023-11-21T08:15:05;9.30;99.90
2387;DHT22;49473;50.772;8.768;2023-11-21T08:17:33;9.40;99.90
2387;DHT22;49473;50.772;8.768;2023-11-21T08:20:00;9.50;99.90
2387;DHT22;49473;50.772;8.768;2023-11-21T08:22:29;9.40;99.90
2387;DHT22;49473;50.772;8.768;2023-11-21T08:24:57;9.60;99.90
2387;DHT22;49473;50.772;8.768;2023-11-21T08:27:24;9.80;99.90
2387;DHT22;49473;50.772;8.768;2023-11-21T08:29:51;9.80;99.90
2387;DHT22;49473;50.772;8.768;2023-11-21T08:32:18;9.80;99.90
2387;DHT22;49473;50.772;8.768;2023-11-21T08:34:45;9.80;99.90
2387;DHT22;49473;50.772;8.768;2023-11-21T08:37:14;10.00;99.90
2387;DHT22;49473;50.772;8.768;2023-11-21T08:39:41;10.20;99.90
2387;DHT22;49473;50.772;8.768;2023-11-21T08:42:10;10.40;99.90
2387;DHT22;49473;50.772;8.768;2023-11-21T08:44:37;10.40;99.90
2387;DHT22;49473;50.772;8.768;2023-11-21T08:47:04;10.40;99.90
2387;DHT22;49473;50.772;8.768;2023-11-21T08:49:31;10.40;99.90
2387;DHT22;49473;50.772;8.768;2023-11-21T08:51:58;10.40;99.90
2387;DHT22;49473;50.772;8.768;2023-11-21T08:54:25;10.40;99.90
2387;DHT22;49473;50.772;8.768;2023-11-21T08:56:52;10.40;99.90
2387;DHT22;49473;50.772;8.768;2023-11-21T08:59:21;10.30;99.90
2387;DHT22;49473;50.772;8.768;2023-11-21T09:01:48;10.10;99.90
2387;DHT22;49473;50.772;8.768;2023-11-21T09:04:15;10.10;99.90
2387;DHT22;49473;50.772;8.768;2023-11-21T09:06:42;10.20;99.90
2387;DHT22;49473;50.772;8.768;2023-11-21T09:09:09;10.10;99.90
2387;DHT22;49473;50.772;8.768;2023-11-21T09:11:36;10.20;99.90
2387;DHT22;49473;50.772;8.768;2023-11-21T09:14:03;10.50;99.90
2387;DHT22;49473;50.772;8.768;2023-11-21T09:16:32;10.80;99.90
2387;DHT22;49473;50.772;8.768;2023-11-21T09:18:58;11.20;99.90
2387;DHT22;49473;50.772;8.768;2023-11-21T09:21:25;11.30;99.90
2387;DHT22;49473;50.772;8.768;2023-11-21T09:23:53;11.80;99.90
2387;DHT22;49473;50.772;8.768;2023-11-21T09:26:20;12.10;99.90
2387;DHT22;49473;50.772;8.768;2023-11-21T09:28:46;12.40;99.90
2387;DHT22;49473;50.772;8.768;2023-11-21T09:31:13;12.20;99.90
2387;DHT22;49473;50.772;8.768;2023-11-21T09:33:43;12.40;99.90
2387;DHT22;49473;50.772;8.768;2023-11-21T09:36:12;12.40;99.90
2387;DHT22;49473;50.772;8.768;2023-11-21T09:38:40;12.40;99.90
2387;DHT22;49473;50.772;8.768;2023-11-21T09:41:10;11.90;99.90
2387;DHT22;49473;50.772;8.768;2023-11-21T09:43:43;11.80;99.90
2387;DHT22;49473;50.772;8.768;2023-11-21T09:46:12;12.20;99.90
2387;DHT22;49473;50.772;8.768;2023-11-21T09:48:48;12.20;99.90
2387;DHT22;49473;50.772;8.768;2023-11-21T09:51:19;12.30;99.90
2387;DHT22;49473;50.772;8.768;2023-11-21T09:53:49;12.30;99.90
2387;DHT22;49473;50.772;8.768;2023-11-21T09:56:17;12.30;99.90
2387;DHT22;49473;50.772;8.768;2023-11-21T09:58:51;12.30;99.90
2387;DHT22;49473;50.772;8.768;2023-11-21T10:01:19;12.30;99.90
2387;DHT22;49473;50.772;8.768;2023-11-21T10:03:48;12.50;99.90
2387;DHT22;49473;50.772;8.768;2023-11-21T10:06:16;12.50;99.90
2387;DHT22;49473;50.772;8.768;2023-11-21T10:08:44;12.60;99.90
2387;DHT22;49473;50.772;8.768;2023-11-21T10:11:12;12.40;99.90
2387;DHT22;49473;50.772;8.768;2023-11-21T10:13:41;12.30;99.90
2387;DHT22;49473;50.772;8.768;2023-11-21T10:16:09;12.00;99.90
2387;DHT22;49473;50.772;8.768;2023-11-21T10:18:39;11.50;99.90
2387;DHT22;49473;50.772;8.768;2023-11-21T10:21:08;11.20;99.90
2387;DHT22;49473;50.772;8.768;2023-11-21T10:23:36;11.10;99.90
2387;DHT22;49473;50.772;8.768;2023-11-21T10:26:04;10.90;99.90
2387;DHT22;49473;50.772;8.768;2023-11-21T10:28:35;10.90;99.90
2387;DHT22;49473;50.772;8.768;2023-11-21T10:31:03;11.00;99.90
2387;DHT22;49473;50.772;8.768;2023-11-21T10:33:32;11.00;99.90
2387;DHT22;49473;50.772;8.768;2023-11-21T10:35:59;11.10;99.90
2387;DHT22;49473;50.772;8.768;2023-11-21T10:38:33;11.30;99.90
2387;DHT22;49473;50.772;8.768;2023-11-21T10:41:10;11.40;99.90
2387;DHT22;49473;50.772;8.768;2023-11-21T10:43:39;11.50;99.90
2387;DHT22;49473;50.772;8.768;2023-11-21T10:46:06;11.30;99.90
2387;DHT22;49473;50.772;8.768;2023-11-21T10:48:33;10.90;99.90
2387;DHT22;49473;50.772;8.768;2023-11-21T10:51:06;10.70;99.90
2387;DHT22;49473;50.772;8.768;2023-11-21T10:53:38;10.80;99.90
2387;DHT22;49473;50.772;8.768;2023-11-21T10:56:08;10.70;99.90
2387;DHT22;49473;50.772;8.768;2023-11-21T10:58:37;10.70;99.90
2387;DHT22;49473;50.772;8.768;2023-11-21T11:01:06;10.60;99.90
2387;DHT22;49473;50.772;8.768;2023-11-21T11:03:36;10.70;99.90
2387;DHT22;49473;50.772;8.768;2023-11-21T11:06:04;10.60;99.90
2387;DHT22;49473;50.772;8.768;2023-11-21T11:08:38;10.40;99.90
2387;DHT22;49473;50.772;8.768;2023-11-21T11:11:05;10.40;99.90
2387;DHT22;49473;50.772;8.768;2023-11-21T11:13:32;10.40;99.90
2387;DHT22;49473;50.772;8.768;2023-11-21T11:16:00;10.40;99.90
2387;DHT22;49473;50.772;8.768;2023-11-21T11:18:28;10.60;99.90
2387;DHT22;49473;50.772;8.768;2023-11-21T11:21:00;10.60;99.90
2387;DHT22;49473;50.772;8.768;2023-11-21T11:23:43;10.80;99.90
2387;DHT22;49473;50.772;8.768;2023-11-21T11:26:18;10.70;99.90
2387;DHT22;49473;50.772;8.768;2023-11-21T11:28:56;10.70;99.90
2387;DHT22;49473;50.772;8.768;2023-11-21T11:31:31;10.80;99.90
2387;DHT22;49473;50.772;8.768;2023-11-21T11:34:14;10.90;99.90
2387;DHT22;49473;50.772;8.768;2023-11-21T11:36:47;10.80;99.90
2387;DHT22;49473;50.772;8.768;2023-11-21T11:39:29;10.80;99.90
2387;DHT22;49473;50.772;8.768;2023-11-21T11:41:56;10.90;99.90
2387;DHT22;49473;50.772;8.768;2023-11-21T11:44:47;11.00;99.90
2387;DHT22;49473;50.772;8.768;2023-11-21T11:47:19;11.00;99.90
2387;DHT22;49473;50.772;8.768;2023-11-21T11:50:00;11.10;99.90
2387;DHT22;49473;50.772;8.768;2023-11-21T11:52:34;11.20;99.90
2387;DHT22;49473;50.772;8.768;2023-11-21T11:55:03;11.10;99.90
2387;DHT22;49473;50.772;8.768;2023-11-21T11:57:31;11.10;99.90
2387;DHT22;49473;50.772;8.768;2023-11-21T12:00:15;11.00;99.90
2387;DHT22;49473;50.772;8.768;2023-11-21T12:02:45;11.10;99.90
2387;DHT22;49473;50.772;8.768;2023-11-21T12:05:14;11.30;99.90
2387;DHT22;49473;50.772;8.768;2023-11-21T12:07:43;11.30;99.90
2387;DHT22;49473;50.772;8.768;2023-11-21T12:10:13;11.30;99.90
2387;DHT22;49473;50.772;8.768;2023-11-21T12:12:47;11.40;99.90
2387;DHT22;49473;50.772;8.768;2023-11-21T12:15:15;11.30;99.90
2387;DHT22;49473;50.772;8.768;2023-11-21T12:17:42;11.20;99.90
2387;DHT22;49473;50.772;8.768;2023-11-21T12:20:10;11.20;99.90
2387;DHT22;49473;50.772;8.768;2023-11-21T12:22:45;11.10;99.90
2387;DHT22;49473;50.772;8.768;2023-11-21T12:25:16;11.10;99.90
2387;DHT22;49473;50.772;8.768;2023-11-21T12:27:44;11.20;99.90
2387;DHT22;49473;50.772;8.768;2023-11-21T12:30:12;11.20;99.90
2387;DHT22;49473;50.772;8.768;2023-11-21T12:32:41;11.20;99.90
2387;DHT22;49473;50.772;8.768;2023-11-21T12:35:09;11.10;99.90
2387;DHT22;49473;50.772;8.768;2023-11-21T12:37:37;11.10;99.90
2387;DHT22;49473;50.772;8.768;2023-11-21T12:40:05;10.90;99.90
2387;DHT22;49473;50.772;8.768;2023-11-21T12:42:34;10.60;99.90
2387;DHT22;49473;50.772;8.768;2023-11-21T12:45:08;10.70;99.90
2387;DHT22;49473;50.772;8.768;2023-11-21T12:47:40;10.70;99.90
2387;DHT22;49473;50.772;8.768;2023-11-21T12:50:07;10.70;99.90
2387;DHT22;49473;50.772;8.768;2023-11-21T12:52:40;10.50;99.90
2387;DHT22;49473;50.772;8.768;2023-11-21T12:55:09;10.40;99.90
2387;DHT22;49473;50.772;8.768;2023-11-21T12:57:43;10.30;99.90
2387;DHT22;49473;50.772;8.768;2023-11-21T13:00:11;10.20;99.90
2387;DHT22;49473;50.772;8.768;2023-11-21T13:02:52;10.00;99.90
2387;DHT22;49473;50.772;8.768;2023-11-21T13:05:26;10.00;99.90
2387;DHT22;49473;50.772;8.768;2023-11-21T13:07:54;9.90;99.90
2387;DHT22;49473;50.772;8.768;2023-11-21T13:10:23;10.00;99.90
2387;DHT22;49473;50.772;8.768;2023-11-21T13:12:52;10.20;99.90
2387;DHT22;49473;50.772;8.768;2023-11-21T13:15:20;10.30;99.90
2387;DHT22;49473;50.772;8.768;2023-11-21T13:17:47;10.40;99.90
2387;DHT22;49473;50.772;8.768;2023-11-21T13:20:15;10.40;99.90
2387;DHT22;49473;50.772;8.768;2023-11-21T13:22:49;10.40;99.90
2387;DHT22;49473;50.772;8.768;2023-11-21T13:25:19;10.50;99.90
2387;DHT22;49473;50.772;8.768;2023-11-21T13:27:46;10.40;99.90
2387;DHT22;49473;50.772;8.768;2023-11-21T13:30:15;10.40;99.90
2387;DHT22;49473;50.772;8.768;2023-11-21T13:32:43;10.30;99.90
2387;DHT22;49473;50.772;8.768;2023-11-21T13:35:11;10.30;99.90
2387;DHT22;49473;50.772;8.768;2023-11-21T13:37:48;10.30;99.90
2387;DHT22;49473;50.772;8.768;2023-11-21T13:40:19;10.20;99.90
2387;DHT22;49473;50.772;8.768;2023-11-21T13:42:49;10.30;99.90
2387;DHT22;49473;50.772;8.768;2023-11-21T13:45:22;10.40;99.90
2387;DHT22;49473;50.772;8.768;2023-11-21T13:47:50;10.30;99.90
2387;DHT22;49473;50.772;8.768;2023-11-21T13:50:18;10.30;99.90
2387;DHT22;49473;50.772;8.768;2023-11-21T13:52:48;10.30;99.90
2387;DHT22;49473;50.772;8.768;2023-11-21T13:55:16;10.30;99.90
2387;DHT22;49473;50.772;8.768;2023-11-21T13:57:43;10.30;99.90
2387;DHT22;49473;50.772;8.768;2023-11-21T14:00:15;10.40;99.90
2387;DHT22;49473;50.772;8.768;2023-11-21T14:03:03;10.50;99.90
2387;DHT22;49473;50.772;8.768;2023-11-21T14:05:36;10.40;99.90
2387;DHT22;49473;50.772;8.768;2023-11-21T14:08:02;10.40;99.90
2387;DHT22;49473;50.772;8.768;2023-11-21T14:10:30;10.50;99.90
2387;DHT22;49473;50.772;8.768;2023-11-21T14:13:05;10.50;99.90
2387;DHT22;49473;50.772;8.768;2023-11-21T14:15:32;10.40;99.90
2387;DHT22;49473;50.772;8.768;2023-11-21T14:18:05;10.40;99.90
2387;DHT22;49473;50.772;8.768;2023-11-21T14:20:34;10.30;99.90
2387;DHT22;49473;50.772;8.768;2023-11-21T14:23:02;10.30;99.90
2387;DHT22;49473;50.772;8.768;2023-11-21T14:25:28;10.30;99.90
2387;DHT22;49473;50.772;8.768;2023-11-21T14:27:55;10.30;99.90
2387;DHT22;49473;50.772;8.768;2023-11-21T14:30:22;10.20;99.90
2387;DHT22;49473;50.772;8.768;2023-11-21T14:32:50;10.10;99.90
2387;DHT22;49473;50.772;8.768;2023-11-21T14:35:18;10.10;99.90
2387;DHT22;49473;50.772;8.768;2023-11-21T14:37:45;9.90;99.90
2387;DHT22;49473;50.772;8.768;2023-11-21T14:40:12;9.90;99.90
2387;DHT22;49473;50.772;8.768;2023-11-21T14:42:42;9.70;99.90
2387;DHT22;49473;50.772;8.768;2023-11-21T14:45:13;9.70;99.90
2387;DHT22;49473;50.772;8.768;2023-11-21T14:47:45;9.70;99.90
2387;DHT22;49473;50.772;8.768;2023-11-21T14:50:18;9.60;99.90
2387;DHT22;49473;50.772;8.768;2023-11-21T14:53:17;9.60;99.90
2387;DHT22;49473;50.772;8.768;2023-11-21T14:56:05;9.70;99.90
2387;DHT22;49473;50.772;8.768;2023-11-21T14:58:33;9.70;99.90
2387;DHT22;49473;50.772;8.768;2023-11-21T15:01:00;9.60;99.90
2387;DHT22;49473;50.772;8.768;2023-11-21T15:03:28;9.60;99.90
2387;DHT22;49473;50.772;8.768;2023-11-21T15:06:10;9.60;99.90
2387;DHT22;49473;50.772;8.768;2023-11-21T15:08:51;9.50;99.90
2387;DHT22;49473;50.772;8.768;2023-11-21T15:11:37;9.50;99.90
2387;DHT22;49473;50.772;8.768;2023-11-21T15:14:04;9.40;99.90
2387;DHT22;49473;50.772;8.768;2023-11-21T15:16:33;9.40;99.90
2387;DHT22;49473;50.772;8.768;2023-11-21T15:19:04;9.30;99.90
2387;DHT22;49473;50.772;8.768;2023-11-21T15:21:33;9.40;99.90
2387;DHT22;49473;50.772;8.768;2023-11-21T15:24:00;9.40;99.90
2387;DHT22;49473;50.772;8.768;2023-11-21T15:26:27;9.30;99.90
2387;DHT22;49473;50.772;8.768;2023-11-21T15:28:54;9.30;99.90
2387;DHT22;49473;50.772;8.768;2023-11-21T15:31:21;9.30;99.90
2387;DHT22;49473;50.772;8.768;2023-11-21T15:33:50;9.20;99.90
2387;DHT22;49473;50.772;8.768;2023-11-21T15:36:17;9.20;99.90
2387;DHT22;49473;50.772;8.768;2023-11-21T15:38:46;9.10;99.90
2387;DHT22;49473;50.772;8.768;2023-11-21T15:41:13;9.20;99.90
2387;DHT22;49473;50.772;8.768;2023-11-21T15:43:40;9.10;99.90
2387;DHT22;49473;50.772;8.768;2023-11-21T15:46:06;9.10;99.90
2387;DHT22;49473;50.772;8.768;2023-11-21T15:48:34;9.00;99.90
2387;DHT22;49473;50.772;8.768;2023-11-21T15:51:01;9.00;99.90
2387;DHT22;49473;50.772;8.768;2023-11-21T15:53:30;9.10;99.90
2387;DHT22;49473;50.772;8.768;2023-11-21T15:55:58;9.10;99.90
2387;DHT22;49473;50.772;8.768;2023-11-21T15:58:25;9.10;99.90
2387;DHT22;49473;50.772;8.768;2023-11-21T16:00:52;9.10;99.90
2387;DHT22;49473;50.772;8.768;2023-11-21T16:03:19;9.10;99.90